WXcenter Banner NOAA Logo links to NOAA website FRD Logo links to FRD website

NOAA INL CURRENT OBSERVATIONS


NOAA AIR RESOURCES LABORATORY
MESONET WEATHER CONDITIONS FOR 24-May-18

Towers located at INL Facilities:

                      Time  Dir/Spd  Temp  WC  RH  Pres.
Location              MDT   deg/mph   (F)  (F)  %  In.Hg

ATR                  06:00  354/  4    46  44  99  25.14
CFA                  06:00  348/  4    48  47  96  25.09
CIT                  06:00    5/  4    47  46  96  25.12
INTEC                06:00  351/  2    46  46  94  25.12
MFC                  06:00   23/  2    45  45  94  24.90
NRF                  06:00   75/  4    46  44  99  25.18
RWMC                 06:00    2/  4    49  48  --  25.02
SMC                  06:00    9/  4    46  44  92  25.23

Other towers located inside the INL:

                      Time  Dir/Spd  Temp  WC  RH  Pres.
Location              MDT   deg/mph   (F)  (F)  %  In.Hg

Base of Howe Peak    06:00  111/  4    47  46  95  25.14
Deadman Canyon       06:00   92/  6    48  46  96  24.94
Lost River           06:00    2/  2    47  47  99  25.05
Rover                06:00  302/  2    47  47  99  25.03
Sand Dunes           06:00   22/  6    45  42  95  25.21

Towers located outside the INL:

                      Time  Dir/Spd  Temp  WC  RH  Pres.
Location              MDT   deg/mph   (F)  (F)  %  In.Hg

Aberdeen             06:00  340/  4    46  44 100  25.58
Arco                 06:00  319/  5    47  45  94
Atomic City          06:00  328/  4    44  42  94  25.02
Blackfoot            06:00   90/  3    48  47  84  25.49
Blue Dome            06:00  327/  6    47  44  91
Cox's Well           06:00   33/  7    45  41  93
Craters of the Moon  06:00  349/  6    49  47  89  24.16
Dubois               06:00   70/  7    49  46  85  24.63
Fort Hall            06:00  233/  3    46  45  85  25.52
Hamer                06:00   23/  7    45  41  92
Howe                 06:00   38/  2    44  44  94
Idaho Falls (REC)    06:00    7/  3    48  48  96  25.30
Kettle Butte         06:00  187/  4    52  --  83  24.85
Minidoka             06:00  141/  8    48  44  90  25.68
Monteview            06:00   60/  5    43  40  95  25.21
Richfield            06:00   17/  8    47  43  96  25.63
Roberts              06:00   86/  4    43  41  94
Sugar City           06:00  357/  5    43  39  93  25.13
Taber                06:00  322/  5    45  42  96
Terreton             06:00  119/  2    45  45  96  25.22

Updated every 5 minutes. Unreviewed data; maintenance may cause some errors.
Forecast: 526-8884   Info: 526-2744
            

This page automatically refreshes every 5 minutes.


Modified: March 1, 2011
Dept. of Commerce |  NOAA |  NOAA Research |  ARL |  FRD Privacy |  Disclaimer |  Information Quality |  webmaster